sensor_id;sensor_type;location;lat;lon;timestamp;P1;durP1;ratioP1;P2;durP2;ratioP2
54428;SDS011;40337;52.978;6.310;2023-04-26T00:00:22;9.02;;;2.80;;
54428;SDS011;40337;52.978;6.310;2023-04-26T00:02:48;5.75;;;2.45;;
54428;SDS011;40337;52.978;6.310;2023-04-26T00:05:14;7.25;;;2.67;;
54428;SDS011;40337;52.978;6.310;2023-04-26T00:07:40;6.45;;;2.75;;
54428;SDS011;40337;52.978;6.310;2023-04-26T00:10:07;7.63;;;2.60;;
54428;SDS011;40337;52.978;6.310;2023-04-26T00:12:34;9.23;;;2.85;;
54428;SDS011;40337;52.978;6.310;2023-04-26T00:15:07;10.82;;;2.88;;
54428;SDS011;40337;52.978;6.310;2023-04-26T00:17:39;6.68;;;2.83;;
54428;SDS011;40337;52.978;6.310;2023-04-26T00:20:05;6.57;;;2.70;;
54428;SDS011;40337;52.978;6.310;2023-04-26T00:22:33;8.43;;;2.60;;
54428;SDS011;40337;52.978;6.310;2023-04-26T00:24:59;5.75;;;2.65;;
54428;SDS011;40337;52.978;6.310;2023-04-26T00:27:24;8.35;;;3.00;;
54428;SDS011;40337;52.978;6.310;2023-04-26T00:29:50;6.60;;;2.53;;
54428;SDS011;40337;52.978;6.310;2023-04-26T00:32:15;6.28;;;2.47;;
54428;SDS011;40337;52.978;6.310;2023-04-26T00:34:41;8.38;;;2.83;;
54428;SDS011;40337;52.978;6.310;2023-04-26T00:37:06;5.47;;;2.28;;
54428;SDS011;40337;52.978;6.310;2023-04-26T00:39:32;5.28;;;2.38;;
54428;SDS011;40337;52.978;6.310;2023-04-26T00:41:57;9.07;;;2.60;;
54428;SDS011;40337;52.978;6.310;2023-04-26T00:44:23;7.97;;;2.55;;
54428;SDS011;40337;52.978;6.310;2023-04-26T00:46:49;8.00;;;2.60;;
54428;SDS011;40337;52.978;6.310;2023-04-26T00:49:17;5.68;;;2.30;;
54428;SDS011;40337;52.978;6.310;2023-04-26T00:51:45;8.25;;;2.42;;
54428;SDS011;40337;52.978;6.310;2023-04-26T00:54:12;5.90;;;2.60;;
54428;SDS011;40337;52.978;6.310;2023-04-26T00:56:38;6.93;;;2.80;;
54428;SDS011;40337;52.978;6.310;2023-04-26T00:59:04;6.95;;;2.75;;
54428;SDS011;40337;52.978;6.310;2023-04-26T01:01:30;5.82;;;2.50;;
54428;SDS011;40337;52.978;6.310;2023-04-26T01:03:56;6.68;;;2.50;;
54428;SDS011;40337;52.978;6.310;2023-04-26T01:06:22;7.13;;;2.83;;
54428;SDS011;40337;52.978;6.310;2023-04-26T01:08:50;7.45;;;2.80;;
54428;SDS011;40337;52.978;6.310;2023-04-26T01:11:19;6.38;;;2.55;;
54428;SDS011;40337;52.978;6.310;2023-04-26T01:13:46;10.13;;;2.97;;
54428;SDS011;40337;52.978;6.310;2023-04-26T01:16:12;7.07;;;2.40;;
54428;SDS011;40337;52.978;6.310;2023-04-26T01:18:39;8.07;;;2.70;;
54428;SDS011;40337;52.978;6.310;2023-04-26T01:21:05;5.97;;;2.60;;
54428;SDS011;40337;52.978;6.310;2023-04-26T01:23:31;5.53;;;2.38;;
54428;SDS011;40337;52.978;6.310;2023-04-26T01:25:56;5.07;;;2.50;;
54428;SDS011;40337;52.978;6.310;2023-04-26T01:28:22;5.65;;;2.28;;
54428;SDS011;40337;52.978;6.310;2023-04-26T01:30:47;7.00;;;2.88;;
54428;SDS011;40337;52.978;6.310;2023-04-26T01:33:13;6.95;;;2.40;;
54428;SDS011;40337;52.978;6.310;2023-04-26T01:35:40;5.78;;;2.50;;
54428;SDS011;40337;52.978;6.310;2023-04-26T01:38:06;4.57;;;2.22;;
54428;SDS011;40337;52.978;6.310;2023-04-26T01:40:32;6.30;;;2.40;;
54428;SDS011;40337;52.978;6.310;2023-04-26T01:42:58;7.47;;;2.60;;
54428;SDS011;40337;52.978;6.310;2023-04-26T01:45:24;6.03;;;2.40;;
54428;SDS011;40337;52.978;6.310;2023-04-26T01:47:49;7.72;;;2.67;;
54428;SDS011;40337;52.978;6.310;2023-04-26T01:50:15;5.88;;;2.35;;
54428;SDS011;40337;52.978;6.310;2023-04-26T01:52:40;6.80;;;2.45;;
54428;SDS011;40337;52.978;6.310;2023-04-26T01:55:06;6.97;;;2.60;;
54428;SDS011;40337;52.978;6.310;2023-04-26T01:57:32;8.55;;;2.75;;
54428;SDS011;40337;52.978;6.310;2023-04-26T01:59:58;5.70;;;2.40;;
54428;SDS011;40337;52.978;6.310;2023-04-26T02:02:23;6.70;;;2.40;;
54428;SDS011;40337;52.978;6.310;2023-04-26T02:04:49;7.55;;;2.72;;
54428;SDS011;40337;52.978;6.310;2023-04-26T02:07:15;6.70;;;2.72;;
54428;SDS011;40337;52.978;6.310;2023-04-26T02:09:40;6.90;;;2.45;;
54428;SDS011;40337;52.978;6.310;2023-04-26T02:12:06;5.43;;;2.40;;
54428;SDS011;40337;52.978;6.310;2023-04-26T02:14:32;7.07;;;2.45;;
54428;SDS011;40337;52.978;6.310;2023-04-26T02:16:57;5.13;;;2.75;;
54428;SDS011;40337;52.978;6.310;2023-04-26T02:19:23;5.32;;;2.70;;
54428;SDS011;40337;52.978;6.310;2023-04-26T02:21:53;7.65;;;2.55;;
54428;SDS011;40337;52.978;6.310;2023-04-26T02:24:20;7.07;;;2.75;;
54428;SDS011;40337;52.978;6.310;2023-04-26T02:26:46;9.52;;;2.70;;
54428;SDS011;40337;52.978;6.310;2023-04-26T02:29:11;9.27;;;2.60;;
54428;SDS011;40337;52.978;6.310;2023-04-26T02:31:37;6.82;;;2.80;;
54428;SDS011;40337;52.978;6.310;2023-04-26T02:34:02;7.47;;;2.70;;
54428;SDS011;40337;52.978;6.310;2023-04-26T02:36:28;6.72;;;2.47;;
54428;SDS011;40337;52.978;6.310;2023-04-26T02:38:54;7.05;;;3.05;;
54428;SDS011;40337;52.978;6.310;2023-04-26T02:41:19;8.30;;;2.60;;
54428;SDS011;40337;52.978;6.310;2023-04-26T02:43:45;6.70;;;2.55;;
54428;SDS011;40337;52.978;6.310;2023-04-26T02:46:11;7.60;;;2.72;;
54428;SDS011;40337;52.978;6.310;2023-04-26T02:48:36;7.95;;;2.67;;
54428;SDS011;40337;52.978;6.310;2023-04-26T02:51:02;7.80;;;2.50;;
54428;SDS011;40337;52.978;6.310;2023-04-26T02:53:28;8.30;;;3.08;;
54428;SDS011;40337;52.978;6.310;2023-04-26T02:55:53;6.95;;;3.03;;
54428;SDS011;40337;52.978;6.310;2023-04-26T02:58:19;9.65;;;2.72;;
54428;SDS011;40337;52.978;6.310;2023-04-26T03:00:48;7.18;;;3.10;;
54428;SDS011;40337;52.978;6.310;2023-04-26T03:03:14;6.70;;;2.55;;
54428;SDS011;40337;52.978;6.310;2023-04-26T03:05:40;7.53;;;2.80;;
54428;SDS011;40337;52.978;6.310;2023-04-26T03:08:06;5.78;;;2.90;;
54428;SDS011;40337;52.978;6.310;2023-04-26T03:10:32;4.97;;;2.20;;
54428;SDS011;40337;52.978;6.310;2023-04-26T03:12:57;6.55;;;2.78;;
54428;SDS011;40337;52.978;6.310;2023-04-26T03:15:23;6.95;;;2.70;;
54428;SDS011;40337;52.978;6.310;2023-04-26T03:17:48;8.70;;;2.80;;
54428;SDS011;40337;52.978;6.310;2023-04-26T03:20:14;5.28;;;2.50;;
54428;SDS011;40337;52.978;6.310;2023-04-26T03:22:39;5.65;;;2.47;;
54428;SDS011;40337;52.978;6.310;2023-04-26T03:25:05;8.27;;;2.90;;
54428;SDS011;40337;52.978;6.310;2023-04-26T03:27:31;7.25;;;2.95;;
54428;SDS011;40337;52.978;6.310;2023-04-26T03:29:57;8.25;;;3.42;;
54428;SDS011;40337;52.978;6.310;2023-04-26T03:32:23;8.00;;;3.13;;
54428;SDS011;40337;52.978;6.310;2023-04-26T03:34:48;7.82;;;3.35;;
54428;SDS011;40337;52.978;6.310;2023-04-26T03:37:14;9.07;;;3.42;;
54428;SDS011;40337;52.978;6.310;2023-04-26T03:39:40;5.63;;;3.10;;
54428;SDS011;40337;52.978;6.310;2023-04-26T03:42:05;8.75;;;3.20;;
54428;SDS011;40337;52.978;6.310;2023-04-26T03:44:32;6.85;;;3.50;;
54428;SDS011;40337;52.978;6.310;2023-04-26T03:46:57;6.57;;;3.00;;
54428;SDS011;40337;52.978;6.310;2023-04-26T03:49:23;8.63;;;3.40;;
54428;SDS011;40337;52.978;6.310;2023-04-26T03:51:49;6.45;;;3.50;;
54428;SDS011;40337;52.978;6.310;2023-04-26T03:54:14;8.45;;;3.70;;
54428;SDS011;40337;52.978;6.310;2023-04-26T03:56:40;7.53;;;3.40;;
54428;SDS011;40337;52.978;6.310;2023-04-26T03:59:05;8.25;;;3.42;;
54428;SDS011;40337;52.978;6.310;2023-04-26T04:01:33;8.38;;;3.53;;
54428;SDS011;40337;52.978;6.310;2023-04-26T04:03:58;6.68;;;2.95;;
54428;SDS011;40337;52.978;6.310;2023-04-26T04:06:24;7.68;;;3.35;;
54428;SDS011;40337;52.978;6.310;2023-04-26T04:08:49;8.88;;;3.78;;
54428;SDS011;40337;52.978;6.310;2023-04-26T04:11:15;6.75;;;3.58;;
54428;SDS011;40337;52.978;6.310;2023-04-26T04:13:41;8.63;;;3.50;;
54428;SDS011;40337;52.978;6.310;2023-04-26T04:16:06;9.68;;;3.53;;
54428;SDS011;40337;52.978;6.310;2023-04-26T04:18:34;9.13;;;4.00;;
54428;SDS011;40337;52.978;6.310;2023-04-26T04:20:59;8.73;;;3.50;;
54428;SDS011;40337;52.978;6.310;2023-04-26T04:23:25;6.03;;;3.42;;
54428;SDS011;40337;52.978;6.310;2023-04-26T04:25:52;6.93;;;3.63;;
54428;SDS011;40337;52.978;6.310;2023-04-26T04:28:17;7.47;;;3.30;;
54428;SDS011;40337;52.978;6.310;2023-04-26T04:30:43;6.68;;;3.50;;
54428;SDS011;40337;52.978;6.310;2023-04-26T04:33:10;8.65;;;3.60;;
54428;SDS011;40337;52.978;6.310;2023-04-26T04:35:36;7.45;;;3.70;;
54428;SDS011;40337;52.978;6.310;2023-04-26T04:38:02;6.55;;;3.40;;
54428;SDS011;40337;52.978;6.310;2023-04-26T04:40:28;9.20;;;3.70;;
54428;SDS011;40337;52.978;6.310;2023-04-26T04:42:54;6.78;;;3.20;;
54428;SDS011;40337;52.978;6.310;2023-04-26T04:45:20;6.78;;;3.42;;
54428;SDS011;40337;52.978;6.310;2023-04-26T04:47:45;5.95;;;3.28;;
54428;SDS011;40337;52.978;6.310;2023-04-26T04:50:11;7.85;;;3.65;;
54428;SDS011;40337;52.978;6.310;2023-04-26T04:52:37;7.82;;;3.47;;
54428;SDS011;40337;52.978;6.310;2023-04-26T04:55:02;5.90;;;3.40;;
54428;SDS011;40337;52.978;6.310;2023-04-26T04:57:29;8.30;;;3.50;;
54428;SDS011;40337;52.978;6.310;2023-04-26T04:59:55;7.75;;;3.75;;
54428;SDS011;40337;52.978;6.310;2023-04-26T05:02:21;7.00;;;3.60;;
54428;SDS011;40337;52.978;6.310;2023-04-26T05:04:46;7.30;;;3.70;;
54428;SDS011;40337;52.978;6.310;2023-04-26T05:07:12;7.15;;;3.45;;
54428;SDS011;40337;52.978;6.310;2023-04-26T05:09:39;8.57;;;4.07;;
54428;SDS011;40337;52.978;6.310;2023-04-26T05:12:08;7.53;;;3.65;;
54428;SDS011;40337;52.978;6.310;2023-04-26T05:14:33;7.70;;;3.55;;
54428;SDS011;40337;52.978;6.310;2023-04-26T05:16:59;7.93;;;3.22;;
54428;SDS011;40337;52.978;6.310;2023-04-26T05:19:24;7.03;;;3.35;;
54428;SDS011;40337;52.978;6.310;2023-04-26T05:21:50;7.85;;;3.40;;
54428;SDS011;40337;52.978;6.310;2023-04-26T05:24:16;8.10;;;3.38;;
54428;SDS011;40337;52.978;6.310;2023-04-26T05:26:42;6.70;;;3.20;;
54428;SDS011;40337;52.978;6.310;2023-04-26T05:29:07;5.18;;;2.83;;
54428;SDS011;40337;52.978;6.310;2023-04-26T05:31:33;7.07;;;3.30;;
54428;SDS011;40337;52.978;6.310;2023-04-26T05:33:58;7.88;;;3.25;;
54428;SDS011;40337;52.978;6.310;2023-04-26T05:36:24;7.65;;;3.40;;
54428;SDS011;40337;52.978;6.310;2023-04-26T05:38:50;6.88;;;2.80;;
54428;SDS011;40337;52.978;6.310;2023-04-26T05:41:16;8.88;;;3.60;;
54428;SDS011;40337;52.978;6.310;2023-04-26T05:43:42;5.53;;;3.10;;
54428;SDS011;40337;52.978;6.310;2023-04-26T05:46:07;9.55;;;3.22;;
54428;SDS011;40337;52.978;6.310;2023-04-26T05:48:33;7.43;;;3.13;;
54428;SDS011;40337;52.978;6.310;2023-04-26T05:50:59;8.57;;;3.22;;
54428;SDS011;40337;52.978;6.310;2023-04-26T05:53:24;7.05;;;3.33;;
54428;SDS011;40337;52.978;6.310;2023-04-26T05:55:50;7.35;;;3.20;;
54428;SDS011;40337;52.978;6.310;2023-04-26T05:58:15;7.10;;;3.25;;
54428;SDS011;40337;52.978;6.310;2023-04-26T06:00:41;5.85;;;2.85;;
54428;SDS011;40337;52.978;6.310;2023-04-26T06:03:07;6.57;;;2.90;;
54428;SDS011;40337;52.978;6.310;2023-04-26T06:05:32;7.85;;;3.15;;
54428;SDS011;40337;52.978;6.310;2023-04-26T06:07:59;6.63;;;3.05;;
54428;SDS011;40337;52.978;6.310;2023-04-26T06:10:25;5.75;;;2.90;;
54428;SDS011;40337;52.978;6.310;2023-04-26T06:12:51;6.65;;;2.90;;
54428;SDS011;40337;52.978;6.310;2023-04-26T06:15:17;6.63;;;3.03;;
54428;SDS011;40337;52.978;6.310;2023-04-26T06:17:42;6.38;;;2.85;;
54428;SDS011;40337;52.978;6.310;2023-04-26T06:20:08;7.20;;;2.97;;
54428;SDS011;40337;52.978;6.310;2023-04-26T06:22:34;7.38;;;2.65;;
54428;SDS011;40337;52.978;6.310;2023-04-26T06:25:00;5.18;;;2.47;;
54428;SDS011;40337;52.978;6.310;2023-04-26T06:27:26;6.35;;;2.80;;
54428;SDS011;40337;52.978;6.310;2023-04-26T06:29:52;6.07;;;2.90;;
54428;SDS011;40337;52.978;6.310;2023-04-26T06:32:17;7.05;;;3.00;;
54428;SDS011;40337;52.978;6.310;2023-04-26T06:34:43;6.47;;;3.03;;
54428;SDS011;40337;52.978;6.310;2023-04-26T06:37:09;8.70;;;2.88;;
54428;SDS011;40337;52.978;6.310;2023-04-26T06:39:35;5.75;;;2.50;;
54428;SDS011;40337;52.978;6.310;2023-04-26T06:42:02;6.93;;;2.72;;
54428;SDS011;40337;52.978;6.310;2023-04-26T06:44:28;9.25;;;2.90;;
54428;SDS011;40337;52.978;6.310;2023-04-26T06:46:54;6.38;;;2.88;;
54428;SDS011;40337;52.978;6.310;2023-04-26T06:49:20;7.82;;;2.38;;
54428;SDS011;40337;52.978;6.310;2023-04-26T06:51:46;8.73;;;2.88;;
54428;SDS011;40337;52.978;6.310;2023-04-26T06:54:12;5.55;;;2.65;;
54428;SDS011;40337;52.978;6.310;2023-04-26T06:56:37;6.82;;;2.45;;
54428;SDS011;40337;52.978;6.310;2023-04-26T06:59:04;6.43;;;2.15;;
54428;SDS011;40337;52.978;6.310;2023-04-26T07:01:32;9.63;;;2.65;;
54428;SDS011;40337;52.978;6.310;2023-04-26T07:03:58;6.10;;;2.40;;
54428;SDS011;40337;52.978;6.310;2023-04-26T07:06:28;7.70;;;2.50;;
54428;SDS011;40337;52.978;6.310;2023-04-26T07:08:54;8.85;;;2.65;;
54428;SDS011;40337;52.978;6.310;2023-04-26T07:11:20;5.47;;;2.25;;
54428;SDS011;40337;52.978;6.310;2023-04-26T07:13:46;6.53;;;2.70;;
54428;SDS011;40337;52.978;6.310;2023-04-26T07:16:11;7.35;;;2.33;;
54428;SDS011;40337;52.978;6.310;2023-04-26T07:18:38;6.90;;;2.45;;
54428;SDS011;40337;52.978;6.310;2023-04-26T07:21:04;6.22;;;2.25;;
54428;SDS011;40337;52.978;6.310;2023-04-26T07:23:30;6.93;;;2.42;;
54428;SDS011;40337;52.978;6.310;2023-04-26T07:25:56;9.38;;;2.30;;
54428;SDS011;40337;52.978;6.310;2023-04-26T07:28:22;8.23;;;2.30;;
54428;SDS011;40337;52.978;6.310;2023-04-26T07:30:47;7.38;;;2.50;;
54428;SDS011;40337;52.978;6.310;2023-04-26T07:33:13;5.75;;;2.10;;
54428;SDS011;40337;52.978;6.310;2023-04-26T07:35:39;5.50;;;2.05;;
54428;SDS011;40337;52.978;6.310;2023-04-26T07:38:04;8.20;;;2.47;;
54428;SDS011;40337;52.978;6.310;2023-04-26T07:40:31;9.40;;;2.35;;
54428;SDS011;40337;52.978;6.310;2023-04-26T07:42:56;7.95;;;2.22;;
54428;SDS011;40337;52.978;6.310;2023-04-26T07:45:22;5.18;;;1.92;;
54428;SDS011;40337;52.978;6.310;2023-04-26T07:47:48;7.05;;;2.20;;
54428;SDS011;40337;52.978;6.310;2023-04-26T07:50:14;7.53;;;1.95;;
54428;SDS011;40337;52.978;6.310;2023-04-26T07:52:39;5.50;;;2.05;;
54428;SDS011;40337;52.978;6.310;2023-04-26T07:55:07;4.45;;;1.90;;
54428;SDS011;40337;52.978;6.310;2023-04-26T07:57:33;6.15;;;1.90;;
54428;SDS011;40337;52.978;6.310;2023-04-26T07:59:58;6.70;;;2.05;;
54428;SDS011;40337;52.978;6.310;2023-04-26T08:02:24;6.88;;;2.08;;
54428;SDS011;40337;52.978;6.310;2023-04-26T08:04:50;7.75;;;2.00;;
54428;SDS011;40337;52.978;6.310;2023-04-26T08:07:19;7.40;;;2.13;;
54428;SDS011;40337;52.978;6.310;2023-04-26T08:09:45;7.55;;;2.38;;
54428;SDS011;40337;52.978;6.310;2023-04-26T08:12:11;5.55;;;1.80;;
54428;SDS011;40337;52.978;6.310;2023-04-26T08:14:37;6.10;;;1.98;;
54428;SDS011;40337;52.978;6.310;2023-04-26T08:17:03;5.82;;;2.17;;
54428;SDS011;40337;52.978;6.310;2023-04-26T08:19:29;6.15;;;2.20;;
54428;SDS011;40337;52.978;6.310;2023-04-26T08:21:57;6.40;;;2.00;;
54428;SDS011;40337;52.978;6.310;2023-04-26T08:24:22;6.53;;;1.95;;
54428;SDS011;40337;52.978;6.310;2023-04-26T08:26:48;5.45;;;1.90;;
54428;SDS011;40337;52.978;6.310;2023-04-26T08:29:14;4.82;;;2.08;;
54428;SDS011;40337;52.978;6.310;2023-04-26T08:31:40;6.65;;;1.92;;
54428;SDS011;40337;52.978;6.310;2023-04-26T08:34:06;8.02;;;2.10;;
54428;SDS011;40337;52.978;6.310;2023-04-26T08:36:35;5.13;;;1.70;;
54428;SDS011;40337;52.978;6.310;2023-04-26T08:39:02;8.25;;;2.25;;
54428;SDS011;40337;52.978;6.310;2023-04-26T08:41:28;6.30;;;1.80;;
54428;SDS011;40337;52.978;6.310;2023-04-26T08:43:59;7.03;;;1.85;;
54428;SDS011;40337;52.978;6.310;2023-04-26T08:46:28;10.02;;;2.10;;
54428;SDS011;40337;52.978;6.310;2023-04-26T08:49:12;5.93;;;2.00;;
54428;SDS011;40337;52.978;6.310;2023-04-26T08:51:41;7.22;;;1.88;;
54428;SDS011;40337;52.978;6.310;2023-04-26T08:54:08;7.40;;;2.13;;
54428;SDS011;40337;52.978;6.310;2023-04-26T08:56:35;5.50;;;1.88;;
54428;SDS011;40337;52.978;6.310;2023-04-26T08:59:02;5.68;;;2.20;;
54428;SDS011;40337;52.978;6.310;2023-04-26T09:01:27;4.70;;;1.95;;
54428;SDS011;40337;52.978;6.310;2023-04-26T09:03:54;6.32;;;2.20;;
54428;SDS011;40337;52.978;6.310;2023-04-26T09:06:21;15.00;;;2.58;;
54428;SDS011;40337;52.978;6.310;2023-04-26T09:08:47;14.90;;;2.30;;
54428;SDS011;40337;52.978;6.310;2023-04-26T09:11:15;6.45;;;1.75;;
54428;SDS011;40337;52.978;6.310;2023-04-26T09:13:41;6.75;;;2.20;;
54428;SDS011;40337;52.978;6.310;2023-04-26T09:16:07;4.25;;;1.80;;
54428;SDS011;40337;52.978;6.310;2023-04-26T09:18:32;5.70;;;2.03;;
54428;SDS011;40337;52.978;6.310;2023-04-26T09:21:05;7.07;;;2.30;;
54428;SDS011;40337;52.978;6.310;2023-04-26T09:23:32;6.28;;;2.45;;
54428;SDS011;40337;52.978;6.310;2023-04-26T09:29:13;8.60;;;3.60;;
54428;SDS011;40337;52.978;6.310;2023-04-26T09:31:45;7.70;;;2.88;;
54428;SDS011;40337;52.978;6.310;2023-04-26T09:34:12;6.25;;;2.58;;
54428;SDS011;40337;52.978;6.310;2023-04-26T09:39:36;5.10;;;2.78;;
54428;SDS011;40337;52.978;6.310;2023-04-26T09:42:04;5.82;;;2.60;;
54428;SDS011;40337;52.978;6.310;2023-04-26T09:44:31;6.80;;;2.90;;
54428;SDS011;40337;52.978;6.310;2023-04-26T09:46:57;5.40;;;2.40;;
54428;SDS011;40337;52.978;6.310;2023-04-26T09:49:27;6.22;;;2.42;;
54428;SDS011;40337;52.978;6.310;2023-04-26T09:52:01;6.53;;;2.45;;
54428;SDS011;40337;52.978;6.310;2023-04-26T09:54:37;6.28;;;2.15;;
54428;SDS011;40337;52.978;6.310;2023-04-26T09:57:04;5.22;;;2.03;;
54428;SDS011;40337;52.978;6.310;2023-04-26T10:02:06;7.10;;;2.28;;
54428;SDS011;40337;52.978;6.310;2023-04-26T10:04:40;6.68;;;2.40;;
54428;SDS011;40337;52.978;6.310;2023-04-26T10:07:12;10.57;;;2.58;;
54428;SDS011;40337;52.978;6.310;2023-04-26T10:09:39;8.27;;;2.72;;
54428;SDS011;40337;52.978;6.310;2023-04-26T10:12:05;4.57;;;2.10;;
54428;SDS011;40337;52.978;6.310;2023-04-26T10:14:33;6.78;;;2.33;;
54428;SDS011;40337;52.978;6.310;2023-04-26T10:16:59;5.22;;;2.10;;
54428;SDS011;40337;52.978;6.310;2023-04-26T10:19:27;4.43;;;2.00;;
54428;SDS011;40337;52.978;6.310;2023-04-26T10:21:54;6.60;;;2.50;;
54428;SDS011;40337;52.978;6.310;2023-04-26T10:24:25;4.82;;;1.90;;
54428;SDS011;40337;52.978;6.310;2023-04-26T10:26:52;5.85;;;2.05;;
54428;SDS011;40337;52.978;6.310;2023-04-26T10:29:21;7.57;;;2.30;;
54428;SDS011;40337;52.978;6.310;2023-04-26T10:34:33;6.38;;;2.22;;
54428;SDS011;40337;52.978;6.310;2023-04-26T10:39:36;8.68;;;2.30;;
54428;SDS011;40337;52.978;6.310;2023-04-26T10:44:54;8.13;;;2.20;;
54428;SDS011;40337;52.978;6.310;2023-04-26T10:47:28;9.40;;;2.90;;
54428;SDS011;40337;52.978;6.310;2023-04-26T10:50:02;6.15;;;2.30;;
54428;SDS011;40337;52.978;6.310;2023-04-26T10:52:36;8.15;;;2.50;;
54428;SDS011;40337;52.978;6.310;2023-04-26T10:55:37;6.28;;;2.25;;
54428;SDS011;40337;52.978;6.310;2023-04-26T10:58:24;5.90;;;2.13;;
54428;SDS011;40337;52.978;6.310;2023-04-26T11:01:03;5.50;;;2.20;;
54428;SDS011;40337;52.978;6.310;2023-04-26T11:04:27;5.72;;;2.05;;
54428;SDS011;40337;52.978;6.310;2023-04-26T11:06:48;6.90;;;2.47;;
54428;SDS011;40337;52.978;6.310;2023-04-26T11:12:02;4.20;;;2.13;;
54428;SDS011;40337;52.978;6.310;2023-04-26T11:14:29;6.45;;;2.40;;
54428;SDS011;40337;52.978;6.310;2023-04-26T11:16:55;8.32;;;2.47;;
54428;SDS011;40337;52.978;6.310;2023-04-26T11:19:21;4.70;;;2.33;;
54428;SDS011;40337;52.978;6.310;2023-04-26T11:21:47;7.60;;;2.85;;
54428;SDS011;40337;52.978;6.310;2023-04-26T11:24:15;7.90;;;3.40;;
54428;SDS011;40337;52.978;6.310;2023-04-26T11:26:41;6.95;;;2.83;;
54428;SDS011;40337;52.978;6.310;2023-04-26T11:29:17;7.95;;;3.40;;
54428;SDS011;40337;52.978;6.310;2023-04-26T11:31:43;7.22;;;2.53;;
54428;SDS011;40337;52.978;6.310;2023-04-26T11:34:15;8.48;;;3.22;;
54428;SDS011;40337;52.978;6.310;2023-04-26T11:36:41;6.07;;;2.63;;
54428;SDS011;40337;52.978;6.310;2023-04-26T11:39:09;7.75;;;2.40;;
54428;SDS011;40337;52.978;6.310;2023-04-26T11:41:35;5.43;;;2.38;;
54428;SDS011;40337;52.978;6.310;2023-04-26T11:44:00;7.65;;;2.53;;
54428;SDS011;40337;52.978;6.310;2023-04-26T11:46:26;5.85;;;2.40;;
54428;SDS011;40337;52.978;6.310;2023-04-26T11:48:51;8.68;;;2.92;;
54428;SDS011;40337;52.978;6.310;2023-04-26T11:51:17;9.77;;;2.67;;
54428;SDS011;40337;52.978;6.310;2023-04-26T11:53:43;11.70;;;2.97;;
54428;SDS011;40337;52.978;6.310;2023-04-26T11:56:19;12.80;;;3.30;;
54428;SDS011;40337;52.978;6.310;2023-04-26T11:58:52;19.15;;;3.67;;
54428;SDS011;40337;52.978;6.310;2023-04-26T12:01:21;6.25;;;3.05;;
54428;SDS011;40337;52.978;6.310;2023-04-26T12:03:48;6.10;;;2.80;;
54428;SDS011;40337;52.978;6.310;2023-04-26T12:06:25;7.95;;;3.38;;
54428;SDS011;40337;52.978;6.310;2023-04-26T12:08:55;8.27;;;3.47;;
54428;SDS011;40337;52.978;6.310;2023-04-26T12:11:20;7.90;;;3.20;;
54428;SDS011;40337;52.978;6.310;2023-04-26T12:13:46;6.72;;;3.28;;
54428;SDS011;40337;52.978;6.310;2023-04-26T12:16:12;7.05;;;3.15;;
54428;SDS011;40337;52.978;6.310;2023-04-26T12:18:38;6.38;;;3.30;;
54428;SDS011;40337;52.978;6.310;2023-04-26T12:21:05;7.10;;;3.22;;
54428;SDS011;40337;52.978;6.310;2023-04-26T12:23:37;6.03;;;3.13;;
54428;SDS011;40337;52.978;6.310;2023-04-26T12:26:04;6.25;;;3.08;;
54428;SDS011;40337;52.978;6.310;2023-04-26T12:28:31;7.07;;;3.60;;
54428;SDS011;40337;52.978;6.310;2023-04-26T12:30:57;7.03;;;3.22;;
54428;SDS011;40337;52.978;6.310;2023-04-26T12:33:24;6.22;;;3.03;;
54428;SDS011;40337;52.978;6.310;2023-04-26T12:35:50;6.90;;;3.38;;
54428;SDS011;40337;52.978;6.310;2023-04-26T12:38:16;7.65;;;3.10;;
54428;SDS011;40337;52.978;6.310;2023-04-26T12:40:42;6.38;;;3.03;;
54428;SDS011;40337;52.978;6.310;2023-04-26T12:43:08;7.53;;;2.58;;
54428;SDS011;40337;52.978;6.310;2023-04-26T12:45:34;6.15;;;2.65;;
54428;SDS011;40337;52.978;6.310;2023-04-26T12:48:00;5.88;;;2.72;;
54428;SDS011;40337;52.978;6.310;2023-04-26T12:50:26;6.88;;;3.10;;
54428;SDS011;40337;52.978;6.310;2023-04-26T12:52:53;7.40;;;2.72;;
54428;SDS011;40337;52.978;6.310;2023-04-26T12:55:19;5.20;;;2.75;;
54428;SDS011;40337;52.978;6.310;2023-04-26T12:57:45;6.40;;;2.55;;
54428;SDS011;40337;52.978;6.310;2023-04-26T13:00:14;5.78;;;2.63;;
54428;SDS011;40337;52.978;6.310;2023-04-26T13:02:42;6.68;;;2.33;;
54428;SDS011;40337;52.978;6.310;2023-04-26T13:05:09;6.72;;;2.60;;
54428;SDS011;40337;52.978;6.310;2023-04-26T13:07:36;5.40;;;2.20;;
54428;SDS011;40337;52.978;6.310;2023-04-26T13:10:03;5.32;;;2.50;;
54428;SDS011;40337;52.978;6.310;2023-04-26T13:12:29;5.15;;;2.60;;
54428;SDS011;40337;52.978;6.310;2023-04-26T13:14:55;6.90;;;2.85;;
54428;SDS011;40337;52.978;6.310;2023-04-26T13:17:22;5.72;;;2.30;;
54428;SDS011;40337;52.978;6.310;2023-04-26T13:19:49;5.85;;;2.20;;
54428;SDS011;40337;52.978;6.310;2023-04-26T13:22:14;4.55;;;2.30;;
54428;SDS011;40337;52.978;6.310;2023-04-26T13:24:40;7.10;;;3.05;;
54428;SDS011;40337;52.978;6.310;2023-04-26T13:27:06;8.60;;;2.72;;
54428;SDS011;40337;52.978;6.310;2023-04-26T13:29:32;8.18;;;3.00;;
54428;SDS011;40337;52.978;6.310;2023-04-26T13:31:57;7.28;;;2.45;;
54428;SDS011;40337;52.978;6.310;2023-04-26T13:34:23;5.22;;;2.67;;
54428;SDS011;40337;52.978;6.310;2023-04-26T13:36:50;6.50;;;2.53;;
54428;SDS011;40337;52.978;6.310;2023-04-26T13:39:16;6.55;;;2.33;;
54428;SDS011;40337;52.978;6.310;2023-04-26T13:41:42;6.43;;;2.55;;
54428;SDS011;40337;52.978;6.310;2023-04-26T13:44:08;5.60;;;2.40;;
54428;SDS011;40337;52.978;6.310;2023-04-26T13:46:33;5.25;;;2.22;;
54428;SDS011;40337;52.978;6.310;2023-04-26T13:48:59;5.45;;;2.15;;
54428;SDS011;40337;52.978;6.310;2023-04-26T13:51:24;8.00;;;2.70;;
54428;SDS011;40337;52.978;6.310;2023-04-26T13:53:52;6.82;;;2.83;;
54428;SDS011;40337;52.978;6.310;2023-04-26T13:56:19;6.18;;;2.22;;
54428;SDS011;40337;52.978;6.310;2023-04-26T13:58:44;7.00;;;2.70;;
54428;SDS011;40337;52.978;6.310;2023-04-26T14:01:10;6.05;;;2.63;;
54428;SDS011;40337;52.978;6.310;2023-04-26T14:03:37;8.25;;;3.08;;
54428;SDS011;40337;52.978;6.310;2023-04-26T14:06:04;7.30;;;3.60;;
54428;SDS011;40337;52.978;6.310;2023-04-26T14:08:29;8.57;;;3.35;;
54428;SDS011;40337;52.978;6.310;2023-04-26T14:10:55;8.35;;;2.55;;
54428;SDS011;40337;52.978;6.310;2023-04-26T14:13:20;5.45;;;2.40;;
54428;SDS011;40337;52.978;6.310;2023-04-26T14:15:46;6.97;;;2.50;;
54428;SDS011;40337;52.978;6.310;2023-04-26T14:18:12;6.60;;;2.38;;
54428;SDS011;40337;52.978;6.310;2023-04-26T14:20:37;4.80;;;2.17;;
54428;SDS011;40337;52.978;6.310;2023-04-26T14:23:03;4.93;;;2.30;;
54428;SDS011;40337;52.978;6.310;2023-04-26T14:25:29;8.57;;;2.70;;
54428;SDS011;40337;52.978;6.310;2023-04-26T14:27:54;7.63;;;3.50;;
54428;SDS011;40337;52.978;6.310;2023-04-26T14:30:20;7.07;;;3.60;;
54428;SDS011;40337;52.978;6.310;2023-04-26T14:32:45;7.63;;;3.15;;
54428;SDS011;40337;52.978;6.310;2023-04-26T14:35:11;10.60;;;5.50;;
54428;SDS011;40337;52.978;6.310;2023-04-26T14:37:37;6.30;;;2.88;;
54428;SDS011;40337;52.978;6.310;2023-04-26T14:40:02;6.80;;;2.85;;
54428;SDS011;40337;52.978;6.310;2023-04-26T14:42:30;4.38;;;2.08;;
54428;SDS011;40337;52.978;6.310;2023-04-26T14:44:59;7.40;;;2.65;;
54428;SDS011;40337;52.978;6.310;2023-04-26T14:47:24;8.27;;;3.25;;
54428;SDS011;40337;52.978;6.310;2023-04-26T14:49:51;9.93;;;3.63;;
54428;SDS011;40337;52.978;6.310;2023-04-26T14:52:16;7.13;;;3.33;;
54428;SDS011;40337;52.978;6.310;2023-04-26T14:54:42;6.20;;;2.70;;
54428;SDS011;40337;52.978;6.310;2023-04-26T14:57:08;4.85;;;2.00;;
54428;SDS011;40337;52.978;6.310;2023-04-26T14:59:34;7.85;;;3.08;;
54428;SDS011;40337;52.978;6.310;2023-04-26T15:02:00;5.80;;;2.20;;
54428;SDS011;40337;52.978;6.310;2023-04-26T15:04:26;3.95;;;2.03;;